Time;durP1;ratioP1;P1;durP2;ratioP2;P2;SDS_P1;SDS_P2;PMS_P1;PMS_P2;Temp;Humidity;BMP_temperature;BMP_pressure;BME280_temperature;BME280_humidity;BME280_pressure;Samples;Min_cycle;Max_cycle;Signal;HPM_P1;HPM_P2
2022/03/17 00:01:27;;;;;;;27.85;17.70;;;;;;;;;;5075970;28;20453;-61
2022/03/17 00:03:53;;;;;;;27.30;18.95;;;;;;;;;;5101052;28;20043;-61
2022/03/17 00:06:19;;;;;;;34.22;17.75;;;;;;;;;;5098816;28;20122;-61
2022/03/17 00:08:46;;;;;;;32.03;18.55;;;;;;;;;;5079376;28;20043;-61
2022/03/17 00:11:12;;;;;;;25.25;17.75;;;;;;;;;;5101415;28;20194;-61
2022/03/17 00:13:39;;;;;;;32.35;20.17;;;;;;;;;;5096355;28;20107;-62
2022/03/17 00:16:05;;;;;;;26.63;19.08;;;;;;;;;;5095612;28;20510;-61
2022/03/17 00:18:32;;;;;;;27.85;19.00;;;;;;;;;;5096796;28;20058;-61
2022/03/17 00:20:58;;;;;;;27.35;18.77;;;;;;;;;;5096924;28;20044;-61
2022/03/17 00:23:24;;;;;;;33.13;20.77;;;;;;;;;;5097531;28;20048;-61
2022/03/17 00:25:50;;;;;;;30.60;18.83;;;;;;;;;;5080700;28;20568;-61
2022/03/17 00:28:17;;;;;;;34.63;20.45;;;;;;;;;;5074497;28;20531;-61
2022/03/17 00:30:43;;;;;;;30.35;19.73;;;;;;;;;;5084468;28;20369;-61
2022/03/17 00:33:09;;;;;;;33.67;19.83;;;;;;;;;;5097196;28;20460;-62
2022/03/17 00:35:35;;;;;;;30.77;19.48;;;;;;;;;;5100885;28;20138;-61
2022/03/17 00:38:03;;;;;;;31.23;20.48;;;;;;;;;;5102251;28;20055;-61
2022/03/17 00:40:30;;;;;;;29.25;19.52;;;;;;;;;;5079228;28;20096;-61
2022/03/17 00:42:57;;;;;;;29.75;19.65;;;;;;;;;;5096776;28;20169;-61
2022/03/17 00:45:24;;;;;;;29.85;19.63;;;;;;;;;;5103611;28;20048;-62
2022/03/17 00:47:50;;;;;;;31.70;18.80;;;;;;;;;;5076229;28;20040;-61
2022/03/17 00:50:16;;;;;;;30.08;19.63;;;;;;;;;;5104366;28;20050;-62
2022/03/17 00:52:42;;;;;;;30.42;20.80;;;;;;;;;;5081333;28;20060;-61
2022/03/17 00:55:08;;;;;;;33.58;21.45;;;;;;;;;;5100637;28;20044;-61
2022/03/17 00:57:36;;;;;;;34.80;20.95;;;;;;;;;;5101561;28;20058;-62
2022/03/17 01:00:05;;;;;;;33.50;20.10;;;;;;;;;;5097204;28;20036;-62
2022/03/17 01:02:31;;;;;;;31.50;20.38;;;;;;;;;;5081791;28;20040;-62
2022/03/17 01:04:57;;;;;;;31.90;19.05;;;;;;;;;;5104084;28;20032;-61
2022/03/17 01:07:24;;;;;;;30.80;19.92;;;;;;;;;;5099655;28;20044;-61
2022/03/17 01:09:50;;;;;;;29.25;19.88;;;;;;;;;;5106393;28;20059;-62
2022/03/17 01:12:16;;;;;;;28.58;18.85;;;;;;;;;;5103031;28;20096;-62
2022/03/17 01:14:42;;;;;;;28.80;18.85;;;;;;;;;;5098918;28;20036;-62
2022/03/17 01:17:08;;;;;;;31.38;20.60;;;;;;;;;;5097439;28;20079;-61
2022/03/17 01:19:35;;;;;;;29.15;20.10;;;;;;;;;;5105987;28;20046;-62
2022/03/17 01:22:02;;;;;;;30.42;20.70;;;;;;;;;;5104993;28;20044;-61
2022/03/17 01:24:28;;;;;;;27.25;19.45;;;;;;;;;;5076092;28;20048;-62
2022/03/17 01:26:54;;;;;;;28.08;19.23;;;;;;;;;;5076995;28;20387;-62
2022/03/17 01:29:20;;;;;;;31.80;20.25;;;;;;;;;;5107586;28;20046;-61
2022/03/17 01:31:46;;;;;;;30.67;20.27;;;;;;;;;;5098094;28;20071;-61
2022/03/17 01:34:13;;;;;;;30.20;20.48;;;;;;;;;;5093175;28;20119;-61
2022/03/17 01:36:39;;;;;;;30.80;20.85;;;;;;;;;;5095843;28;20032;-62
2022/03/17 01:39:05;;;;;;;31.73;21.23;;;;;;;;;;5094917;28;21770;-62
2022/03/17 01:41:31;;;;;;;32.20;21.65;;;;;;;;;;5077327;28;20051;-61
2022/03/17 01:43:57;;;;;;;33.15;19.90;;;;;;;;;;5095422;28;20384;-62
2022/03/17 01:46:23;;;;;;;29.98;21.35;;;;;;;;;;5078461;28;20451;-62
2022/03/17 01:48:49;;;;;;;32.28;20.67;;;;;;;;;;5096603;28;20082;-61
2022/03/17 01:51:16;;;;;;;30.35;20.67;;;;;;;;;;5092650;28;20044;-61
2022/03/17 01:53:42;;;;;;;33.45;21.67;;;;;;;;;;5094083;28;20162;-61
2022/03/17 01:56:08;;;;;;;33.67;22.85;;;;;;;;;;5094593;28;20399;-62
2022/03/17 01:58:34;;;;;;;31.83;22.55;;;;;;;;;;5091490;28;20045;-61
2022/03/17 02:01:01;;;;;;;33.78;22.70;;;;;;;;;;5092188;28;20047;-61
2022/03/17 02:03:28;;;;;;;40.63;24.42;;;;;;;;;;5096769;28;20036;-61
2022/03/17 02:05:54;;;;;;;34.00;24.20;;;;;;;;;;5078759;28;20051;-62
2022/03/17 02:08:21;;;;;;;33.97;23.02;;;;;;;;;;5092486;28;20364;-61
2022/03/17 02:13:31;;;;;;;33.22;24.80;;;;;;;;;;5095515;28;20035;-61
2022/03/17 02:16:02;;;;;;;35.28;25.17;;;;;;;;;;5100392;28;20043;-62
2022/03/17 02:18:28;;;;;;;39.17;24.80;;;;;;;;;;5100638;28;20040;-62
2022/03/17 02:20:57;;;;;;;38.38;25.98;;;;;;;;;;5085443;28;20040;-61
2022/03/17 02:26:08;;;;;;;37.47;25.15;;;;;;;;;;5099017;28;20414;-61
2022/03/17 02:28:35;;;;;;;37.13;24.85;;;;;;;;;;5102737;28;20042;-62
2022/03/17 02:31:02;;;;;;;37.13;24.83;;;;;;;;;;5102875;28;20123;-62
2022/03/17 02:33:28;;;;;;;41.03;27.77;;;;;;;;;;5079121;28;20080;-61
2022/03/17 02:35:54;;;;;;;38.42;25.55;;;;;;;;;;5086274;28;20032;-61
2022/03/17 02:38:21;;;;;;;34.13;23.98;;;;;;;;;;5072314;28;20047;-61
2022/03/17 02:40:50;;;;;;;40.03;27.80;;;;;;;;;;5085307;28;20046;-61
2022/03/17 02:43:18;;;;;;;36.10;26.65;;;;;;;;;;5097340;28;20422;-61
2022/03/17 02:45:44;;;;;;;38.30;25.42;;;;;;;;;;5095358;28;20131;-62
2022/03/17 02:48:11;;;;;;;36.78;26.25;;;;;;;;;;5094438;28;20043;-61
2022/03/17 02:50:38;;;;;;;38.30;26.40;;;;;;;;;;5075844;28;20371;-61
2022/03/17 02:53:06;;;;;;;40.97;27.77;;;;;;;;;;5075868;28;20130;-62
2022/03/17 02:55:34;;;;;;;36.35;26.95;;;;;;;;;;5091828;28;20139;-61
2022/03/17 02:58:00;;;;;;;40.33;28.27;;;;;;;;;;5075039;28;20044;-62
2022/03/17 03:00:27;;;;;;;42.60;27.85;;;;;;;;;;5075532;28;20044;-62
2022/03/17 03:02:53;;;;;;;42.47;29.48;;;;;;;;;;5088883;28;20044;-62
2022/03/17 03:05:19;;;;;;;41.38;28.63;;;;;;;;;;5095245;28;20040;-61
2022/03/17 03:07:45;;;;;;;40.00;28.20;;;;;;;;;;5096343;28;20391;-62
2022/03/17 03:10:11;;;;;;;46.53;29.83;;;;;;;;;;5096111;28;20594;-61
2022/03/17 03:12:37;;;;;;;47.97;30.38;;;;;;;;;;5092260;28;20039;-61
2022/03/17 03:15:03;;;;;;;44.85;29.80;;;;;;;;;;5096599;28;20047;-61
2022/03/17 03:17:30;;;;;;;45.83;31.13;;;;;;;;;;5079447;28;20048;-61
2022/03/17 03:19:56;;;;;;;49.20;33.47;;;;;;;;;;5080831;28;20123;-61
2022/03/17 03:22:22;;;;;;;46.17;32.78;;;;;;;;;;5099888;28;20042;-61
2022/03/17 03:24:48;;;;;;;50.42;34.25;;;;;;;;;;5059834;28;20058;-61
2022/03/17 03:27:14;;;;;;;50.28;34.78;;;;;;;;;;5100258;28;20063;-62
2022/03/17 03:29:41;;;;;;;52.35;35.80;;;;;;;;;;5077839;28;20158;-61
2022/03/17 03:32:07;;;;;;;57.67;36.75;;;;;;;;;;5097051;28;20048;-62
2022/03/17 03:34:34;;;;;;;57.33;36.72;;;;;;;;;;5102944;28;20046;-62
2022/03/17 03:39:45;;;;;;;63.05;40.78;;;;;;;;;;5077553;28;20048;-62
2022/03/17 03:42:11;;;;;;;68.80;42.15;;;;;;;;;;5076206;28;20035;-62
2022/03/17 03:44:38;;;;;;;70.43;44.05;;;;;;;;;;5082309;28;20049;-62
2022/03/17 03:47:05;;;;;;;75.75;42.58;;;;;;;;;;5103041;28;20043;-62
2022/03/17 03:49:31;;;;;;;71.65;43.30;;;;;;;;;;5100994;28;20039;-62
2022/03/17 03:51:58;;;;;;;86.30;48.15;;;;;;;;;;5102152;28;20040;-62
2022/03/17 03:54:24;;;;;;;80.40;44.67;;;;;;;;;;5098264;28;20040;-62
2022/03/17 03:56:52;;;;;;;88.38;46.85;;;;;;;;;;5078516;28;20052;-62
2022/03/17 03:59:20;;;;;;;94.30;48.97;;;;;;;;;;5080795;28;20056;-62
2022/03/17 04:01:47;;;;;;;99.57;50.22;;;;;;;;;;5095211;28;20127;-62
2022/03/17 04:04:17;;;;;;;108.30;50.58;;;;;;;;;;5090711;28;20172;-62
2022/03/17 04:06:46;;;;;;;105.78;52.25;;;;;;;;;;5094626;28;20051;-62
2022/03/17 04:09:13;;;;;;;114.03;53.60;;;;;;;;;;5076343;28;20043;-62
2022/03/17 04:11:39;;;;;;;126.43;54.65;;;;;;;;;;5096880;28;20044;-62
2022/03/17 04:14:06;;;;;;;127.63;57.88;;;;;;;;;;5073292;28;20044;-63
2022/03/17 04:16:32;;;;;;;132.40;54.85;;;;;;;;;;5095099;28;20043;-62
2022/03/17 04:18:59;;;;;;;143.77;57.15;;;;;;;;;;5079494;28;20111;-62
2022/03/17 04:21:25;;;;;;;111.70;47.80;;;;;;;;;;5094130;28;20520;-62
2022/03/17 04:23:51;;;;;;;73.47;35.20;;;;;;;;;;5095813;28;20524;-62
2022/03/17 04:26:17;;;;;;;31.70;16.20;;;;;;;;;;5081932;28;20067;-62
2022/03/17 04:28:43;;;;;;;31.95;14.85;;;;;;;;;;5104356;28;20036;-62
2022/03/17 04:31:10;;;;;;;23.02;13.30;;;;;;;;;;5106454;28;20123;-62
2022/03/17 04:33:36;;;;;;;26.30;13.60;;;;;;;;;;5101159;28;20448;-62
2022/03/17 04:36:03;;;;;;;23.90;12.63;;;;;;;;;;5089815;28;20047;-61
2022/03/17 04:38:29;;;;;;;27.92;13.98;;;;;;;;;;5100012;28;20459;-62
2022/03/17 04:40:55;;;;;;;23.10;12.95;;;;;;;;;;5103358;28;20146;-62
2022/03/17 04:43:21;;;;;;;23.45;14.10;;;;;;;;;;5093639;28;20099;-62
2022/03/17 04:45:48;;;;;;;19.30;11.23;;;;;;;;;;5084538;28;20036;-62
2022/03/17 04:48:15;;;;;;;18.98;11.73;;;;;;;;;;5097609;28;20429;-62
2022/03/17 04:50:41;;;;;;;18.05;10.55;;;;;;;;;;5086900;28;20055;-62
2022/03/17 04:55:54;;;;;;;22.55;11.43;;;;;;;;;;5098264;28;20487;-62
2022/03/17 04:58:20;;;;;;;37.20;11.65;;;;;;;;;;5099974;28;20028;-62
2022/03/17 05:00:46;;;;;;;22.05;11.38;;;;;;;;;;5099118;28;20044;-62
2022/03/17 05:03:12;;;;;;;21.33;11.05;;;;;;;;;;5101276;28;20131;-62
2022/03/17 05:05:39;;;;;;;25.25;13.20;;;;;;;;;;5097849;28;20110;-62
2022/03/17 05:08:06;;;;;;;33.10;14.35;;;;;;;;;;5099180;28;20048;-62
2022/03/17 05:10:38;;;;;;;38.15;14.90;;;;;;;;;;5100304;28;21672;-62
2022/03/17 05:13:05;;;;;;;40.20;16.13;;;;;;;;;;5093490;28;20071;-62
2022/03/17 05:15:32;;;;;;;37.72;15.45;;;;;;;;;;5097009;28;20032;-62
2022/03/17 05:17:58;;;;;;;33.88;14.82;;;;;;;;;;5095395;28;20044;-62
2022/03/17 05:20:24;;;;;;;33.10;12.25;;;;;;;;;;5096913;28;20080;-62
2022/03/17 05:22:51;;;;;;;23.85;10.95;;;;;;;;;;5096365;28;20070;-62
2022/03/17 05:25:17;;;;;;;26.05;10.05;;;;;;;;;;5095801;28;20072;-62
2022/03/17 05:27:43;;;;;;;30.27;10.13;;;;;;;;;;5100908;28;20066;-62
2022/03/17 05:30:10;;;;;;;31.50;9.40;;;;;;;;;;5081676;28;20048;-62
2022/03/17 05:32:37;;;;;;;32.50;10.57;;;;;;;;;;5110068;27;20040;-62
2022/03/17 05:35:03;;;;;;;27.88;7.40;;;;;;;;;;5078651;28;20052;-62
2022/03/17 05:37:29;;;;;;;29.75;6.88;;;;;;;;;;5098477;28;20043;-62
2022/03/17 05:39:55;;;;;;;23.60;6.55;;;;;;;;;;5109493;27;20091;-62
2022/03/17 05:42:21;;;;;;;20.83;5.40;;;;;;;;;;5098658;28;20040;-62
2022/03/17 05:44:47;;;;;;;25.02;6.22;;;;;;;;;;5100543;28;20359;-62
2022/03/17 05:47:14;;;;;;;18.85;4.75;;;;;;;;;;5099192;28;20079;-62
2022/03/17 05:49:40;;;;;;;23.20;4.35;;;;;;;;;;5110122;27;20055;-62
2022/03/17 05:52:07;;;;;;;19.98;4.13;;;;;;;;;;5072232;28;20375;-63
2022/03/17 05:54:33;;;;;;;23.88;6.47;;;;;;;;;;5096031;28;20492;-62
2022/03/17 05:56:59;;;;;;;24.80;4.38;;;;;;;;;;5094975;28;20040;-62
2022/03/17 05:59:25;;;;;;;18.40;4.00;;;;;;;;;;5105273;27;20138;-63
2022/03/17 06:01:52;;;;;;;20.45;4.15;;;;;;;;;;5070307;28;20131;-62
2022/03/17 06:04:18;;;;;;;15.65;3.58;;;;;;;;;;5067416;28;20062;-62
2022/03/17 06:06:44;;;;;;;18.58;3.78;;;;;;;;;;5080584;28;20040;-63
2022/03/17 06:09:10;;;;;;;14.27;4.13;;;;;;;;;;5082898;28;20504;-62
2022/03/17 06:11:36;;;;;;;21.45;5.38;;;;;;;;;;5082345;28;20512;-63
2022/03/17 06:14:02;;;;;;;16.95;2.80;;;;;;;;;;5082744;28;20033;-63
2022/03/17 06:16:28;;;;;;;12.30;2.95;;;;;;;;;;5084063;28;20044;-63
2022/03/17 06:18:55;;;;;;;11.13;2.58;;;;;;;;;;5077743;28;20044;-63
2022/03/17 06:21:21;;;;;;;11.65;2.58;;;;;;;;;;5082793;28;20044;-62
2022/03/17 06:23:47;;;;;;;12.77;2.83;;;;;;;;;;5080313;28;20091;-63
2022/03/17 06:26:13;;;;;;;16.10;2.50;;;;;;;;;;5084151;28;20048;-63
2022/03/17 06:28:39;;;;;;;16.30;2.95;;;;;;;;;;5083496;28;20036;-63
2022/03/17 06:31:05;;;;;;;16.58;3.17;;;;;;;;;;5081988;28;20077;-63
2022/03/17 06:33:31;;;;;;;12.43;2.28;;;;;;;;;;5084050;28;20052;-62
2022/03/17 06:35:58;;;;;;;14.30;3.00;;;;;;;;;;5087074;28;20067;-62
2022/03/17 06:38:24;;;;;;;18.48;3.03;;;;;;;;;;5084656;28;20036;-63
2022/03/17 06:40:50;;;;;;;16.75;2.47;;;;;;;;;;5086408;28;20048;-63
2022/03/17 06:43:17;;;;;;;13.48;3.25;;;;;;;;;;5083407;28;20375;-62
2022/03/17 06:45:44;;;;;;;17.55;3.67;;;;;;;;;;5084863;28;20032;-63
2022/03/17 06:48:10;;;;;;;24.15;4.00;;;;;;;;;;5080612;28;20052;-63
2022/03/17 06:50:37;;;;;;;13.15;2.80;;;;;;;;;;5080950;28;20048;-63
2022/03/17 06:53:03;;;;;;;20.48;4.35;;;;;;;;;;5081731;28;20090;-63
2022/03/17 06:55:33;;;;;;;24.23;3.58;;;;;;;;;;5081925;28;20423;-63
2022/03/17 06:58:00;;;;;;;23.90;3.30;;;;;;;;;;5083368;28;20060;-63
2022/03/17 07:00:26;;;;;;;19.17;3.00;;;;;;;;;;5082064;28;20047;-63
2022/03/17 07:02:52;;;;;;;17.27;2.38;;;;;;;;;;5082128;28;20443;-63
2022/03/17 07:05:18;;;;;;;22.38;3.28;;;;;;;;;;5063263;28;20474;-63
2022/03/17 07:07:45;;;;;;;17.65;2.80;;;;;;;;;;5065603;28;20511;-62
2022/03/17 07:10:11;;;;;;;31.25;3.35;;;;;;;;;;5089417;28;20036;-63
2022/03/17 07:12:38;;;;;;;18.63;2.38;;;;;;;;;;5079166;28;20048;-63
2022/03/17 07:15:05;;;;;;;21.70;3.17;;;;;;;;;;5082472;28;20390;-63
2022/03/17 07:17:39;;;;;;;21.65;2.70;;;;;;;;;;5081114;28;20071;-63
2022/03/17 07:20:06;;;;;;;17.83;2.35;;;;;;;;;;5084378;28;20109;-63
2022/03/17 07:22:32;;;;;;;18.00;2.35;;;;;;;;;;5062042;28;20353;-62
2022/03/17 07:24:58;;;;;;;17.25;3.00;;;;;;;;;;5064611;28;20398;-63
2022/03/17 07:27:25;;;;;;;20.80;2.45;;;;;;;;;;5095598;28;20143;-63
2022/03/17 07:29:51;;;;;;;15.95;2.40;;;;;;;;;;5058856;28;20414;-62
2022/03/17 07:32:18;;;;;;;21.00;2.97;;;;;;;;;;5085921;28;20070;-62
2022/03/17 07:34:45;;;;;;;17.80;3.08;;;;;;;;;;5081212;28;20115;-64
2022/03/17 07:37:12;;;;;;;25.10;3.38;;;;;;;;;;5061047;28;20482;-65
2022/03/17 07:39:38;;;;;;;26.08;3.40;;;;;;;;;;5063201;28;20032;-64
2022/03/17 07:42:04;;;;;;;22.25;2.55;;;;;;;;;;5063017;28;20041;-61
2022/03/17 07:44:31;;;;;;;12.27;3.33;;;;;;;;;;5082425;28;20045;-65
2022/03/17 07:46:57;;;;;;;29.35;4.15;;;;;;;;;;5067199;28;20046;-64
2022/03/17 07:49:23;;;;;;;23.02;3.30;;;;;;;;;;5085403;28;20114;-64
2022/03/17 07:51:49;;;;;;;23.02;3.90;;;;;;;;;;5079827;28;20039;-64
2022/03/17 07:54:15;;;;;;;27.85;3.92;;;;;;;;;;5081892;28;20084;-64
2022/03/17 07:56:42;;;;;;;31.88;3.90;;;;;;;;;;5084898;28;20193;-65
2022/03/17 07:59:09;;;;;;;20.85;3.22;;;;;;;;;;5070584;28;20486;-64
2022/03/17 08:01:35;;;;;;;12.27;1.95;;;;;;;;;;5083659;28;20416;-65
2022/03/17 08:04:01;;;;;;;13.88;2.40;;;;;;;;;;5089942;28;20123;-64
2022/03/17 08:06:27;;;;;;;17.30;2.53;;;;;;;;;;5063770;28;20166;-64
2022/03/17 08:08:53;;;;;;;21.08;3.00;;;;;;;;;;5089983;28;20174;-62
2022/03/17 08:11:23;;;;;;;12.93;2.65;;;;;;;;;;5081948;28;20050;-62
2022/03/17 08:13:49;;;;;;;14.70;2.60;;;;;;;;;;5103656;28;20047;-62
2022/03/17 08:16:15;;;;;;;17.27;4.75;;;;;;;;;;5086202;28;20047;-62
2022/03/17 08:18:42;;;;;;;19.17;2.83;;;;;;;;;;5080275;28;20048;-62
2022/03/17 08:21:08;;;;;;;12.90;2.28;;;;;;;;;;5088296;28;20072;-62
2022/03/17 08:23:34;;;;;;;14.80;2.38;;;;;;;;;;5078671;28;20036;-62
2022/03/17 08:26:01;;;;;;;16.30;2.53;;;;;;;;;;5067506;28;20052;-62
2022/03/17 08:28:28;;;;;;;14.40;3.35;;;;;;;;;;5092385;28;20040;-62
2022/03/17 08:30:54;;;;;;;21.88;3.45;;;;;;;;;;5093636;28;20036;-62
2022/03/17 08:33:20;;;;;;;16.17;2.97;;;;;;;;;;5092795;28;20036;-62
2022/03/17 08:35:46;;;;;;;20.10;4.22;;;;;;;;;;5081843;28;20036;-62
2022/03/17 08:38:12;;;;;;;22.75;4.18;;;;;;;;;;5090055;28;20044;-62
2022/03/17 08:40:40;;;;;;;27.60;3.10;;;;;;;;;;5088460;28;20074;-62
2022/03/17 08:43:08;;;;;;;27.65;3.47;;;;;;;;;;5074622;28;20044;-62
2022/03/17 08:51:04;;;;;;;23.55;4.25;;;;;;;;;;5091658;28;20490;-62
2022/03/17 08:53:30;;;;;;;16.30;2.70;;;;;;;;;;5075891;28;20400;-62
2022/03/17 08:55:57;;;;;;;17.70;2.25;;;;;;;;;;5092806;28;20052;-62
2022/03/17 08:58:24;;;;;;;19.17;2.70;;;;;;;;;;5060127;28;20044;-63
2022/03/17 09:00:50;;;;;;;16.08;3.83;;;;;;;;;;5090515;28;20383;-62
2022/03/17 09:03:16;;;;;;;18.33;2.95;;;;;;;;;;5076655;28;20040;-62
2022/03/17 09:05:42;;;;;;;20.08;3.42;;;;;;;;;;5079056;28;20036;-62
2022/03/17 09:08:09;;;;;;;15.98;2.50;;;;;;;;;;5064989;28;20135;-62
2022/03/17 09:10:35;;;;;;;14.18;2.72;;;;;;;;;;5090226;28;20106;-62
2022/03/17 09:13:09;;;;;;;17.27;2.88;;;;;;;;;;5085856;28;20097;-63
2022/03/17 09:15:36;;;;;;;19.70;2.38;;;;;;;;;;5084829;28;20084;-63
2022/03/17 09:18:03;;;;;;;13.75;2.58;;;;;;;;;;5075179;28;20051;-62
2022/03/17 09:20:29;;;;;;;16.20;2.25;;;;;;;;;;5078754;28;20131;-62
2022/03/17 09:22:56;;;;;;;11.43;2.72;;;;;;;;;;5089697;28;20044;-62
2022/03/17 09:25:29;;;;;;;14.43;2.88;;;;;;;;;;5108697;28;20039;-63
2022/03/17 09:27:55;;;;;;;19.13;2.63;;;;;;;;;;5091982;28;20046;-62
2022/03/17 09:30:22;;;;;;;18.17;3.40;;;;;;;;;;5092975;28;20044;-62
2022/03/17 09:32:51;;;;;;;20.10;2.78;;;;;;;;;;5084238;28;20387;-62
2022/03/17 09:35:18;;;;;;;22.15;2.63;;;;;;;;;;5082260;28;20064;-61
2022/03/17 09:37:44;;;;;;;17.92;3.20;;;;;;;;;;5074063;28;20072;-62
2022/03/17 09:40:11;;;;;;;11.77;2.30;;;;;;;;;;5074103;28;20116;-62
2022/03/17 09:42:38;;;;;;;16.38;2.90;;;;;;;;;;5073834;28;20070;-62
2022/03/17 09:45:06;;;;;;;17.35;2.33;;;;;;;;;;5073622;28;20036;-62
2022/03/17 09:47:35;;;;;;;21.90;2.75;;;;;;;;;;5073398;28;20102;-62
2022/03/17 09:50:02;;;;;;;17.48;2.38;;;;;;;;;;5072620;28;20040;-62
2022/03/17 09:52:30;;;;;;;18.05;2.60;;;;;;;;;;5077893;28;20055;-62
2022/03/17 09:54:57;;;;;;;21.40;2.75;;;;;;;;;;5088406;28;20059;-62
2022/03/17 09:57:23;;;;;;;17.33;2.53;;;;;;;;;;5086036;28;20051;-62
2022/03/17 09:59:50;;;;;;;16.90;2.30;;;;;;;;;;5092316;28;20050;-62
2022/03/17 10:02:17;;;;;;;13.23;3.00;;;;;;;;;;5107428;28;20072;-62
2022/03/17 10:04:45;;;;;;;15.52;2.33;;;;;;;;;;5091146;28;20036;-62
2022/03/17 10:07:12;;;;;;;21.00;2.83;;;;;;;;;;5091477;28;20036;-62
2022/03/17 10:09:38;;;;;;;12.82;2.70;;;;;;;;;;5073453;28;20040;-62
2022/03/17 10:12:06;;;;;;;16.63;2.60;;;;;;;;;;5072984;28;20484;-62
2022/03/17 10:14:39;;;;;;;12.68;3.10;;;;;;;;;;5092151;28;20073;-62
2022/03/17 10:17:06;;;;;;;17.10;3.40;;;;;;;;;;5069973;28;20050;-62
2022/03/17 10:19:32;;;;;;;17.00;2.33;;;;;;;;;;5074033;28;20040;-62
2022/03/17 10:22:07;;;;;;;16.35;2.90;;;;;;;;;;5073197;28;20161;-62
2022/03/17 10:24:36;;;;;;;14.10;2.88;;;;;;;;;;5072506;28;20044;-63
2022/03/17 10:27:04;;;;;;;18.92;2.97;;;;;;;;;;5091896;28;20051;-63
2022/03/17 10:29:31;;;;;;;15.75;2.78;;;;;;;;;;5066707;28;20079;-62
2022/03/17 10:31:58;;;;;;;32.13;3.63;;;;;;;;;;5088311;28;20096;-62
2022/03/17 10:34:28;;;;;;;15.93;3.10;;;;;;;;;;5074464;28;20051;-62
2022/03/17 10:37:07;;;;;;;19.23;3.30;;;;;;;;;;5060746;28;20055;-62
2022/03/17 10:39:42;;;;;;;22.70;3.72;;;;;;;;;;5086369;28;20049;-63
2022/03/17 10:42:10;;;;;;;22.60;3.75;;;;;;;;;;5072532;28;20048;-62
2022/03/17 10:44:39;;;;;;;18.33;3.03;;;;;;;;;;5089534;28;20059;-62
2022/03/17 10:47:05;;;;;;;21.15;3.67;;;;;;;;;;5072152;28;20047;-62
2022/03/17 10:49:31;;;;;;;16.23;3.08;;;;;;;;;;5096376;28;20037;-63
2022/03/17 10:51:58;;;;;;;21.80;3.47;;;;;;;;;;5086256;28;20048;-63
2022/03/17 10:54:25;;;;;;;18.77;2.88;;;;;;;;;;5083462;28;20040;-62
2022/03/17 10:57:12;;;;;;;17.85;3.10;;;;;;;;;;5086682;28;20044;-63
2022/03/17 10:59:42;;;;;;;19.55;2.70;;;;;;;;;;5089570;28;20118;-62
2022/03/17 11:02:08;;;;;;;20.75;3.13;;;;;;;;;;5056736;28;20040;-62
2022/03/17 11:04:38;;;;;;;22.33;4.07;;;;;;;;;;5072086;28;20072;-63
2022/03/17 11:07:07;;;;;;;17.23;3.20;;;;;;;;;;5058897;28;20052;-62
2022/03/17 11:09:38;;;;;;;16.15;2.83;;;;;;;;;;5058691;28;20444;-63
2022/03/17 11:12:05;;;;;;;20.10;3.40;;;;;;;;;;5074404;28;20039;-63
2022/03/17 11:14:32;;;;;;;15.52;3.10;;;;;;;;;;5083154;28;20070;-63
2022/03/17 11:16:59;;;;;;;23.58;4.13;;;;;;;;;;5073014;28;20040;-63
2022/03/17 11:19:25;;;;;;;16.98;3.38;;;;;;;;;;5074454;28;20579;-63
2022/03/17 11:22:08;;;;;;;20.88;4.22;;;;;;;;;;5071206;28;20041;-63
2022/03/17 11:24:35;;;;;;;16.23;2.88;;;;;;;;;;5080498;28;20040;-63
2022/03/17 11:27:09;;;;;;;19.65;4.13;;;;;;;;;;5080549;28;20366;-62
2022/03/17 11:29:40;;;;;;;13.35;2.58;;;;;;;;;;5077065;28;20044;-63
2022/03/17 11:32:09;;;;;;;21.70;4.32;;;;;;;;;;5091258;28;20048;-63
2022/03/17 11:34:41;;;;;;;15.82;2.58;;;;;;;;;;5071188;28;20132;-63
2022/03/17 11:37:22;;;;;;;14.52;2.67;;;;;;;;;;5053736;28;20099;-62
2022/03/17 11:40:05;;;;;;;15.45;2.90;;;;;;;;;;5071701;28;20120;-63
2022/03/17 11:42:43;;;;;;;19.17;3.20;;;;;;;;;;5072030;28;20052;-63
2022/03/17 11:45:11;;;;;;;16.95;3.13;;;;;;;;;;5090176;28;20051;-63
2022/03/17 11:47:38;;;;;;;14.82;3.22;;;;;;;;;;5090105;28;20122;-63
2022/03/17 11:50:22;;;;;;;14.40;2.58;;;;;;;;;;5089388;28;20040;-63
2022/03/17 11:52:48;;;;;;;;;;;;;;;;;;5072065;28;20123;-63
2022/03/17 11:55:32;;;;;;;12.32;2.85;;;;;;;;;;5089185;28;20050;-63
2022/03/17 11:58:17;;;;;;;11.82;2.33;;;;;;;;;;5089970;28;20062;-63
2022/03/17 12:00:46;;;;;;;13.60;2.47;;;;;;;;;;5071952;28;20136;-63
2022/03/17 12:03:12;;;;;;;13.82;2.92;;;;;;;;;;5085302;28;20044;-63
2022/03/17 12:05:39;;;;;;;15.35;2.95;;;;;;;;;;5089706;28;20040;-63
2022/03/17 12:08:06;;;;;;;12.23;2.63;;;;;;;;;;5088216;28;20044;-63
2022/03/17 12:10:51;;;;;;;15.45;2.40;;;;;;;;;;5088339;28;20039;-63
2022/03/17 12:13:24;;;;;;;16.75;2.95;;;;;;;;;;5089648;28;20475;-63
2022/03/17 12:15:55;;;;;;;17.48;3.33;;;;;;;;;;5071966;28;20036;-63
2022/03/17 12:18:21;;;;;;;19.15;3.58;;;;;;;;;;5070624;28;20116;-63
2022/03/17 12:20:50;;;;;;;15.63;2.90;;;;;;;;;;5073332;28;20509;-64
2022/03/17 12:23:35;;;;;;;16.30;3.17;;;;;;;;;;5070878;28;20067;-63
2022/03/17 12:26:04;;;;;;;12.45;3.33;;;;;;;;;;5074777;28;20055;-63
2022/03/17 12:28:31;;;;;;;13.98;2.45;;;;;;;;;;5077039;28;20127;-63
2022/03/17 12:30:57;;;;;;;14.35;2.85;;;;;;;;;;5092821;28;20181;-63
2022/03/17 12:33:25;;;;;;;11.85;2.70;;;;;;;;;;5063659;28;20172;-63
2022/03/17 12:36:04;;;;;;;14.13;2.72;;;;;;;;;;5057059;28;20063;-63
2022/03/17 12:38:30;;;;;;;12.15;2.95;;;;;;;;;;5090224;28;20075;-63
2022/03/17 12:40:57;;;;;;;12.55;3.10;;;;;;;;;;5065257;28;20127;-63
2022/03/17 12:43:24;;;;;;;14.48;2.72;;;;;;;;;;5063198;28;20379;-63
2022/03/17 12:45:51;;;;;;;13.13;2.42;;;;;;;;;;5091780;28;20394;-63
2022/03/17 12:48:18;;;;;;;12.45;2.72;;;;;;;;;;5091986;28;20379;-63
2022/03/17 12:50:45;;;;;;;11.27;2.63;;;;;;;;;;5073909;28;20634;-64
2022/03/17 12:53:11;;;;;;;12.50;2.58;;;;;;;;;;5092892;28;20503;-63
2022/03/17 12:55:38;;;;;;;11.07;2.20;;;;;;;;;;5091326;28;20043;-63
2022/03/17 12:58:04;;;;;;;11.30;2.50;;;;;;;;;;5072753;28;20056;-63
2022/03/17 13:00:31;;;;;;;13.82;2.88;;;;;;;;;;5087681;28;20162;-63
2022/03/17 13:02:59;;;;;;;14.05;2.22;;;;;;;;;;5084985;28;20040;-63
2022/03/17 13:08:12;;;;;;;11.75;2.13;;;;;;;;;;5090990;28;20047;-63
2022/03/17 13:16:10;;;;;;;14.02;2.78;;;;;;;;;;5072724;28;20218;-63
2022/03/17 13:18:40;;;;;;;12.23;2.38;;;;;;;;;;5088976;28;20117;-63
2022/03/17 13:21:06;;;;;;;13.05;2.10;;;;;;;;;;5091181;28;20456;-63
2022/03/17 13:23:36;;;;;;;16.52;2.58;;;;;;;;;;5072517;28;20139;-63
2022/03/17 13:26:02;;;;;;;10.90;2.20;;;;;;;;;;5089221;28;20142;-63
2022/03/17 13:28:28;;;;;;;11.48;2.20;;;;;;;;;;5088049;28;20135;-63
2022/03/17 13:30:54;;;;;;;11.80;2.75;;;;;;;;;;5090119;28;20089;-63
2022/03/17 13:33:27;;;;;;;10.15;2.83;;;;;;;;;;5090446;28;20036;-62
2022/03/17 13:35:57;;;;;;;7.57;1.92;;;;;;;;;;5070715;28;20071;-62
2022/03/17 13:39:00;;;;;;;9.48;2.25;;;;;;;;;;5071958;28;20118;-62
2022/03/17 13:41:26;;;;;;;9.52;2.40;;;;;;;;;;5046859;28;20047;-63
2022/03/17 13:44:03;;;;;;;14.30;2.33;;;;;;;;;;5074351;28;20139;-63
2022/03/17 13:46:39;;;;;;;7.88;1.85;;;;;;;;;;5091454;28;20044;-63
2022/03/17 13:49:13;;;;;;;12.50;2.20;;;;;;;;;;5089167;28;20076;-63
2022/03/17 13:51:39;;;;;;;7.32;1.80;;;;;;;;;;5086466;28;20115;-62
2022/03/17 13:54:05;;;;;;;15.80;2.20;;;;;;;;;;5070954;28;20044;-62
2022/03/17 13:56:32;;;;;;;9.00;2.00;;;;;;;;;;5100910;28;20056;-62
2022/03/17 13:58:58;;;;;;;6.63;1.88;;;;;;;;;;5070514;28;20100;-63
2022/03/17 14:01:25;;;;;;;9.00;1.38;;;;;;;;;;5081015;28;20044;-62
2022/03/17 14:03:51;;;;;;;12.10;2.00;;;;;;;;;;5089398;28;20459;-63
2022/03/17 14:06:20;;;;;;;11.73;1.90;;;;;;;;;;5089878;28;20131;-62
2022/03/17 14:08:49;;;;;;;10.95;2.00;;;;;;;;;;5070192;28;20052;-63
2022/03/17 14:11:16;;;;;;;10.68;2.42;;;;;;;;;;5088582;28;20044;-62
2022/03/17 14:13:44;;;;;;;8.10;2.15;;;;;;;;;;5069263;28;20059;-63
2022/03/17 14:16:10;;;;;;;8.85;1.70;;;;;;;;;;5088122;28;20120;-63
2022/03/17 14:18:38;;;;;;;11.15;2.20;;;;;;;;;;5086366;28;20051;-62
2022/03/17 14:21:04;;;;;;;12.02;1.98;;;;;;;;;;5069379;28;20059;-62
2022/03/17 14:26:17;;;;;;;13.40;2.15;;;;;;;;;;5091061;28;20052;-62
2022/03/17 14:28:43;;;;;;;13.65;2.97;;;;;;;;;;5087515;28;20078;-63
2022/03/17 14:31:12;;;;;;;8.10;2.03;;;;;;;;;;5084336;28;20037;-63
2022/03/17 14:33:39;;;;;;;8.88;1.95;;;;;;;;;;5087120;28;20044;-63
2022/03/17 14:36:06;;;;;;;8.30;2.35;;;;;;;;;;5086586;28;20048;-62
2022/03/17 14:38:33;;;;;;;9.55;1.70;;;;;;;;;;5083576;28;20044;-62
2022/03/17 14:40:59;;;;;;;9.73;2.05;;;;;;;;;;5083167;28;20090;-63
2022/03/17 14:43:25;;;;;;;12.32;2.00;;;;;;;;;;5089375;28;20134;-63
2022/03/17 14:45:51;;;;;;;13.70;2.25;;;;;;;;;;5087350;28;20477;-63
2022/03/17 14:48:17;;;;;;;8.32;1.75;;;;;;;;;;5067643;28;20052;-63
2022/03/17 14:50:44;;;;;;;10.10;1.63;;;;;;;;;;5071766;28;20050;-63
2022/03/17 14:53:10;;;;;;;11.68;2.35;;;;;;;;;;5085388;28;20044;-62
2022/03/17 14:55:36;;;;;;;15.85;2.80;;;;;;;;;;5072513;28;20048;-63